sensor_id;sensor_type;location;lat;lon;timestamp;pressure;altitude;pressure_sealevel;temperature;humidity
3206;BME280;1615;53.602;11.418;2022-07-09T00:02:11;102062.66;;;18.07;100.00
3206;BME280;1615;53.602;11.418;2022-07-09T00:04:40;102074.50;;;18.12;100.00
3206;BME280;1615;53.602;11.418;2022-07-09T00:07:05;102090.53;;;18.02;100.00
3206;BME280;1615;53.602;11.418;2022-07-09T00:09:31;102082.50;;;18.14;100.00
3206;BME280;1615;53.602;11.418;2022-07-09T00:11:56;102084.75;;;18.12;100.00
3206;BME280;1615;53.602;11.418;2022-07-09T00:14:25;102104.94;;;18.04;100.00
3206;BME280;1615;53.602;11.418;2022-07-09T00:16:50;102040.63;;;17.61;100.00
3206;BME280;1615;53.602;11.418;2022-07-09T00:19:15;102062.31;;;17.73;100.00
3206;BME280;1615;53.602;11.418;2022-07-09T00:21:41;102080.88;;;17.99;100.00
3206;BME280;1615;53.602;11.418;2022-07-09T00:24:06;102021.94;;;17.67;100.00
3206;BME280;1615;53.602;11.418;2022-07-09T00:26:32;102081.50;;;18.10;100.00
3206;BME280;1615;53.602;11.418;2022-07-09T00:28:57;102068.13;;;17.98;100.00
3206;BME280;1615;53.602;11.418;2022-07-09T00:31:22;102073.78;;;18.07;100.00
3206;BME280;1615;53.602;11.418;2022-07-09T00:33:48;102073.66;;;18.12;100.00
3206;BME280;1615;53.602;11.418;2022-07-09T00:36:13;102071.19;;;18.10;100.00
3206;BME280;1615;53.602;11.418;2022-07-09T00:38:38;102070.88;;;18.12;100.00
3206;BME280;1615;53.602;11.418;2022-07-09T00:41:04;102072.53;;;18.13;100.00
3206;BME280;1615;53.602;11.418;2022-07-09T00:43:29;102068.31;;;18.15;100.00
3206;BME280;1615;53.602;11.418;2022-07-09T00:45:56;102062.31;;;18.22;100.00
3206;BME280;1615;53.602;11.418;2022-07-09T00:48:21;102058.09;;;18.24;100.00
3206;BME280;1615;53.602;11.418;2022-07-09T00:50:46;102059.66;;;18.17;100.00
3206;BME280;1615;53.602;11.418;2022-07-09T00:53:13;102057.41;;;18.19;100.00
3206;BME280;1615;53.602;11.418;2022-07-09T00:55:40;102046.50;;;18.22;100.00
3206;BME280;1615;53.602;11.418;2022-07-09T00:58:06;102051.75;;;18.24;100.00
3206;BME280;1615;53.602;11.418;2022-07-09T01:00:34;102047.09;;;18.33;100.00
3206;BME280;1615;53.602;11.418;2022-07-09T01:02:59;102044.84;;;18.35;100.00
3206;BME280;1615;53.602;11.418;2022-07-09T01:05:24;101979.31;;;17.98;100.00
3206;BME280;1615;53.602;11.418;2022-07-09T01:07:50;101990.56;;;18.15;100.00
3206;BME280;1615;53.602;11.418;2022-07-09T01:10:16;102040.41;;;18.34;100.00
3206;BME280;1615;53.602;11.418;2022-07-09T01:12:41;102036.81;;;18.33;100.00
3206;BME280;1615;53.602;11.418;2022-07-09T01:15:07;102028.69;;;18.37;100.00
3206;BME280;1615;53.602;11.418;2022-07-09T01:17:40;102027.44;;;18.29;100.00
3206;BME280;1615;53.602;11.418;2022-07-09T01:20:07;102037.97;;;18.32;100.00
3206;BME280;1615;53.602;11.418;2022-07-09T01:22:33;102030.00;;;18.39;100.00
3206;BME280;1615;53.602;11.418;2022-07-09T01:25:00;102033.09;;;18.38;100.00
3206;BME280;1615;53.602;11.418;2022-07-09T01:27:26;102001.25;;;18.22;100.00
3206;BME280;1615;53.602;11.418;2022-07-09T01:29:51;102029.09;;;18.30;100.00
3206;BME280;1615;53.602;11.418;2022-07-09T01:32:16;101999.25;;;18.14;100.00
3206;BME280;1615;53.602;11.418;2022-07-09T01:34:42;102037.41;;;18.30;100.00
3206;BME280;1615;53.602;11.418;2022-07-09T01:37:07;102032.03;;;18.47;100.00
3206;BME280;1615;53.602;11.418;2022-07-09T01:39:32;102025.47;;;18.43;100.00
3206;BME280;1615;53.602;11.418;2022-07-09T01:41:58;101943.81;;;17.87;100.00
3206;BME280;1615;53.602;11.418;2022-07-09T01:44:23;102027.25;;;18.39;100.00
3206;BME280;1615;53.602;11.418;2022-07-09T01:46:49;102023.63;;;18.39;100.00
3206;BME280;1615;53.602;11.418;2022-07-09T01:49:14;102021.50;;;18.36;100.00
3206;BME280;1615;53.602;11.418;2022-07-09T01:51:39;102023.13;;;18.37;100.00
3206;BME280;1615;53.602;11.418;2022-07-09T01:54:05;102011.94;;;18.28;100.00
3206;BME280;1615;53.602;11.418;2022-07-09T01:56:31;101997.97;;;18.20;100.00
3206;BME280;1615;53.602;11.418;2022-07-09T01:58:56;102010.88;;;18.38;100.00
3206;BME280;1615;53.602;11.418;2022-07-09T02:01:22;102001.63;;;18.29;100.00
3206;BME280;1615;53.602;11.418;2022-07-09T02:03:47;101989.63;;;18.33;100.00
3206;BME280;1615;53.602;11.418;2022-07-09T02:06:13;102064.38;;;18.43;100.00
3206;BME280;1615;53.602;11.418;2022-07-09T02:08:38;102005.44;;;18.55;100.00
3206;BME280;1615;53.602;11.418;2022-07-09T02:11:04;102010.38;;;18.58;100.00
3206;BME280;1615;53.602;11.418;2022-07-09T02:13:30;102010.38;;;18.58;100.00
3206;BME280;1615;53.602;11.418;2022-07-09T02:15:55;102002.53;;;18.60;100.00
3206;BME280;1615;53.602;11.418;2022-07-09T02:18:21;101996.00;;;18.56;100.00
3206;BME280;1615;53.602;11.418;2022-07-09T02:20:46;101995.00;;;18.52;100.00
3206;BME280;1615;53.602;11.418;2022-07-09T02:23:11;101998.38;;;18.49;100.00
3206;BME280;1615;53.602;11.418;2022-07-09T02:25:37;101996.25;;;18.46;100.00
3206;BME280;1615;53.602;11.418;2022-07-09T02:28:02;101972.00;;;18.38;100.00
3206;BME280;1615;53.602;11.418;2022-07-09T02:30:28;101998.00;;;18.42;100.00
3206;BME280;1615;53.602;11.418;2022-07-09T02:32:53;101937.38;;;18.00;100.00
3206;BME280;1615;53.602;11.418;2022-07-09T02:35:18;101997.38;;;18.45;100.00
3206;BME280;1615;53.602;11.418;2022-07-09T02:37:44;101923.03;;;17.98;100.00
3206;BME280;1615;53.602;11.418;2022-07-09T02:40:09;101989.31;;;18.35;100.00
3206;BME280;1615;53.602;11.418;2022-07-09T02:42:35;101978.81;;;18.32;100.00
3206;BME280;1615;53.602;11.418;2022-07-09T02:45:01;101917.22;;;18.08;100.00
3206;BME280;1615;53.602;11.418;2022-07-09T02:47:27;101942.19;;;18.30;100.00
3206;BME280;1615;53.602;11.418;2022-07-09T02:49:52;101974.16;;;18.41;100.00
3206;BME280;1615;53.602;11.418;2022-07-09T02:52:17;101985.59;;;18.39;100.00
3206;BME280;1615;53.602;11.418;2022-07-09T02:54:43;101960.94;;;18.24;100.00
3206;BME280;1615;53.602;11.418;2022-07-09T02:57:08;101982.50;;;18.41;100.00
3206;BME280;1615;53.602;11.418;2022-07-09T02:59:33;101975.91;;;18.37;100.00
3206;BME280;1615;53.602;11.418;2022-07-09T03:01:59;101977.91;;;18.45;100.00
3206;BME280;1615;53.602;11.418;2022-07-09T03:04:25;101972.91;;;18.47;100.00
3206;BME280;1615;53.602;11.418;2022-07-09T03:06:50;101911.09;;;17.97;100.00
3206;BME280;1615;53.602;11.418;2022-07-09T03:09:15;101971.00;;;18.34;100.00
3206;BME280;1615;53.602;11.418;2022-07-09T03:11:41;101973.84;;;18.29;100.00
3206;BME280;1615;53.602;11.418;2022-07-09T03:14:06;101929.19;;;17.95;100.00
3206;BME280;1615;53.602;11.418;2022-07-09T03:16:31;101910.91;;;17.94;100.00
3206;BME280;1615;53.602;11.418;2022-07-09T03:18:57;101976.53;;;18.34;100.00
3206;BME280;1615;53.602;11.418;2022-07-09T03:21:22;101920.38;;;17.93;100.00
3206;BME280;1615;53.602;11.418;2022-07-09T03:23:47;101985.50;;;18.31;100.00
3206;BME280;1615;53.602;11.418;2022-07-09T03:26:13;101978.31;;;18.30;100.00
3206;BME280;1615;53.602;11.418;2022-07-09T03:28:38;101977.16;;;18.31;100.00
3206;BME280;1615;53.602;11.418;2022-07-09T03:31:03;101970.59;;;18.27;100.00
3206;BME280;1615;53.602;11.418;2022-07-09T03:33:29;101978.03;;;18.18;100.00
3206;BME280;1615;53.602;11.418;2022-07-09T03:35:54;101891.84;;;17.79;100.00
3206;BME280;1615;53.602;11.418;2022-07-09T03:38:23;101962.38;;;18.22;100.00
3206;BME280;1615;53.602;11.418;2022-07-09T03:40:49;101962.38;;;18.22;100.00
3206;BME280;1615;53.602;11.418;2022-07-09T03:43:15;101923.41;;;18.05;100.00
3206;BME280;1615;53.602;11.418;2022-07-09T03:45:40;101956.72;;;18.27;100.00
3206;BME280;1615;53.602;11.418;2022-07-09T03:48:06;101948.19;;;18.23;100.00
3206;BME280;1615;53.602;11.418;2022-07-09T03:50:31;101886.16;;;17.84;100.00
3206;BME280;1615;53.602;11.418;2022-07-09T03:52:56;101879.66;;;17.88;100.00
3206;BME280;1615;53.602;11.418;2022-07-09T03:55:23;101954.31;;;18.34;100.00
3206;BME280;1615;53.602;11.418;2022-07-09T03:57:49;101952.88;;;18.36;100.00
3206;BME280;1615;53.602;11.418;2022-07-09T04:00:14;101897.28;;;18.06;100.00
3206;BME280;1615;53.602;11.418;2022-07-09T04:02:40;101950.53;;;18.30;100.00
3206;BME280;1615;53.602;11.418;2022-07-09T04:05:06;101923.16;;;18.15;100.00
3206;BME280;1615;53.602;11.418;2022-07-09T04:07:31;101948.56;;;18.30;100.00
3206;BME280;1615;53.602;11.418;2022-07-09T04:09:57;101944.44;;;18.28;100.00
3206;BME280;1615;53.602;11.418;2022-07-09T04:12:22;101941.69;;;18.28;100.00
3206;BME280;1615;53.602;11.418;2022-07-09T04:14:48;101887.44;;;18.00;100.00
3206;BME280;1615;53.602;11.418;2022-07-09T04:17:13;101892.75;;;17.88;100.00
3206;BME280;1615;53.602;11.418;2022-07-09T04:19:38;101939.69;;;18.20;100.00
3206;BME280;1615;53.602;11.418;2022-07-09T04:22:04;101833.56;;;17.57;100.00
3206;BME280;1615;53.602;11.418;2022-07-09T04:24:29;101940.34;;;18.25;100.00
3206;BME280;1615;53.602;11.418;2022-07-09T04:26:55;101936.03;;;18.33;100.00
3206;BME280;1615;53.602;11.418;2022-07-09T04:29:21;101947.00;;;18.38;100.00
3206;BME280;1615;53.602;11.418;2022-07-09T04:31:47;101923.53;;;18.44;100.00
3206;BME280;1615;53.602;11.418;2022-07-09T04:34:12;101934.50;;;18.49;100.00
3206;BME280;1615;53.602;11.418;2022-07-09T04:36:37;101932.81;;;18.39;100.00
3206;BME280;1615;53.602;11.418;2022-07-09T04:39:03;101878.97;;;18.05;100.00
3206;BME280;1615;53.602;11.418;2022-07-09T04:41:28;101925.81;;;18.42;100.00
3206;BME280;1615;53.602;11.418;2022-07-09T04:43:54;101930.03;;;18.39;100.00
3206;BME280;1615;53.602;11.418;2022-07-09T04:46:19;101933.13;;;18.38;100.00
3206;BME280;1615;53.602;11.418;2022-07-09T04:48:46;101923.56;;;18.30;100.00
3206;BME280;1615;53.602;11.418;2022-07-09T04:51:12;101921.41;;;18.41;100.00
3206;BME280;1615;53.602;11.418;2022-07-09T04:53:37;101917.75;;;18.32;100.00
3206;BME280;1615;53.602;11.418;2022-07-09T04:56:02;101932.38;;;18.46;100.00
3206;BME280;1615;53.602;11.418;2022-07-09T04:58:28;101941.91;;;18.53;100.00
3206;BME280;1615;53.602;11.418;2022-07-09T05:00:54;101941.06;;;18.53;100.00
3206;BME280;1615;53.602;11.418;2022-07-09T05:03:19;101935.50;;;18.53;100.00
3206;BME280;1615;53.602;11.418;2022-07-09T05:05:45;101928.31;;;18.52;100.00
3206;BME280;1615;53.602;11.418;2022-07-09T05:08:10;101832.38;;;17.93;100.00
3206;BME280;1615;53.602;11.418;2022-07-09T05:10:35;101934.69;;;18.52;100.00
3206;BME280;1615;53.602;11.418;2022-07-09T05:13:01;101921.13;;;18.51;100.00
3206;BME280;1615;53.602;11.418;2022-07-09T05:15:26;101917.09;;;18.57;100.00
3206;BME280;1615;53.602;11.418;2022-07-09T05:17:52;101927.53;;;18.60;100.00
3206;BME280;1615;53.602;11.418;2022-07-09T05:20:17;101920.16;;;18.55;100.00
3206;BME280;1615;53.602;11.418;2022-07-09T05:22:43;101918.66;;;18.49;100.00
3206;BME280;1615;53.602;11.418;2022-07-09T05:25:08;101917.34;;;18.47;100.00
3206;BME280;1615;53.602;11.418;2022-07-09T05:27:43;101847.75;;;17.99;100.00
3206;BME280;1615;53.602;11.418;2022-07-09T05:30:09;101907.75;;;18.53;100.00
3206;BME280;1615;53.602;11.418;2022-07-09T05:32:35;101877.41;;;18.34;100.00
3206;BME280;1615;53.602;11.418;2022-07-09T05:35:00;101904.66;;;18.54;100.00
3206;BME280;1615;53.602;11.418;2022-07-09T05:37:25;101916.72;;;18.58;100.00
3206;BME280;1615;53.602;11.418;2022-07-09T05:39:51;101879.09;;;18.44;100.00
3206;BME280;1615;53.602;11.418;2022-07-09T05:42:16;101907.66;;;18.66;100.00
3206;BME280;1615;53.602;11.418;2022-07-09T05:44:41;101864.72;;;18.42;100.00
3206;BME280;1615;53.602;11.418;2022-07-09T05:47:06;101896.75;;;18.78;100.00
3206;BME280;1615;53.602;11.418;2022-07-09T05:49:32;101890.88;;;18.80;100.00
3206;BME280;1615;53.602;11.418;2022-07-09T05:51:57;101891.22;;;18.87;100.00
3206;BME280;1615;53.602;11.418;2022-07-09T05:54:22;101893.34;;;18.90;100.00
3206;BME280;1615;53.602;11.418;2022-07-09T05:56:48;101886.50;;;18.96;100.00
3206;BME280;1615;53.602;11.418;2022-07-09T05:59:13;101896.03;;;19.12;100.00
3206;BME280;1615;53.602;11.418;2022-07-09T06:01:38;101881.38;;;19.20;100.00
3206;BME280;1615;53.602;11.418;2022-07-09T06:04:08;101818.94;;;18.78;100.00
3206;BME280;1615;53.602;11.418;2022-07-09T06:06:34;101868.56;;;19.10;100.00
3206;BME280;1615;53.602;11.418;2022-07-09T06:09:00;101880.56;;;19.28;100.00
3206;BME280;1615;53.602;11.418;2022-07-09T06:11:25;101883.84;;;19.30;100.00
3206;BME280;1615;53.602;11.418;2022-07-09T06:13:50;101842.06;;;19.13;100.00
3206;BME280;1615;53.602;11.418;2022-07-09T06:16:16;101876.03;;;19.49;100.00
3206;BME280;1615;53.602;11.418;2022-07-09T06:18:41;101882.91;;;19.60;100.00
3206;BME280;1615;53.602;11.418;2022-07-09T06:21:06;101880.13;;;19.68;100.00
3206;BME280;1615;53.602;11.418;2022-07-09T06:23:32;101875.22;;;19.74;100.00
3206;BME280;1615;53.602;11.418;2022-07-09T06:25:57;101754.09;;;19.00;100.00
3206;BME280;1615;53.602;11.418;2022-07-09T06:28:22;101836.09;;;19.45;100.00
3206;BME280;1615;53.602;11.418;2022-07-09T06:30:48;101863.75;;;19.75;100.00
3206;BME280;1615;53.602;11.418;2022-07-09T06:33:13;101828.75;;;19.49;100.00
3206;BME280;1615;53.602;11.418;2022-07-09T06:35:39;101873.59;;;19.81;100.00
3206;BME280;1615;53.602;11.418;2022-07-09T06:38:04;101868.03;;;19.90;100.00
3206;BME280;1615;53.602;11.418;2022-07-09T06:40:30;101873.41;;;19.95;100.00
3206;BME280;1615;53.602;11.418;2022-07-09T06:42:55;101870.28;;;20.05;100.00
3206;BME280;1615;53.602;11.418;2022-07-09T06:45:20;101870.63;;;20.12;100.00
3206;BME280;1615;53.602;11.418;2022-07-09T06:47:45;101518.69;;;18.07;100.00
3206;BME280;1615;53.602;11.418;2022-07-09T06:50:11;101866.47;;;20.35;100.00
3206;BME280;1615;53.602;11.418;2022-07-09T06:52:36;101838.69;;;20.18;100.00
3206;BME280;1615;53.602;11.418;2022-07-09T06:55:02;101859.38;;;20.54;100.00
3206;BME280;1615;53.602;11.418;2022-07-09T06:57:27;101836.41;;;20.57;100.00
3206;BME280;1615;53.602;11.418;2022-07-09T06:59:54;101865.78;;;20.84;100.00
3206;BME280;1615;53.602;11.418;2022-07-09T07:02:19;101866.63;;;20.93;100.00
3206;BME280;1615;53.602;11.418;2022-07-09T07:04:45;101869.22;;;20.98;100.00
3206;BME280;1615;53.602;11.418;2022-07-09T07:07:10;101855.47;;;20.93;100.00
3206;BME280;1615;53.602;11.418;2022-07-09T07:09:35;101857.09;;;20.94;100.00
3206;BME280;1615;53.602;11.418;2022-07-09T07:12:01;101807.03;;;20.68;100.00
3206;BME280;1615;53.602;11.418;2022-07-09T07:14:26;101850.22;;;20.83;100.00
3206;BME280;1615;53.602;11.418;2022-07-09T07:16:52;101858.59;;;20.83;100.00
3206;BME280;1615;53.602;11.418;2022-07-09T07:19:18;101852.47;;;20.98;100.00
3206;BME280;1615;53.602;11.418;2022-07-09T07:21:46;101841.91;;;20.74;100.00
3206;BME280;1615;53.602;11.418;2022-07-09T07:24:11;101753.59;;;20.29;100.00
3206;BME280;1615;53.602;11.418;2022-07-09T07:26:36;101846.38;;;20.67;100.00
3206;BME280;1615;53.602;11.418;2022-07-09T07:29:02;101848.13;;;20.80;100.00
3206;BME280;1615;53.602;11.418;2022-07-09T07:31:28;101788.72;;;20.59;100.00
3206;BME280;1615;53.602;11.418;2022-07-09T07:33:53;101846.13;;;21.18;100.00
3206;BME280;1615;53.602;11.418;2022-07-09T07:36:19;101834.53;;;21.36;100.00
3206;BME280;1615;53.602;11.418;2022-07-09T07:38:44;101829.38;;;21.59;100.00
3206;BME280;1615;53.602;11.418;2022-07-09T07:41:13;101831.25;;;21.75;100.00
3206;BME280;1615;53.602;11.418;2022-07-09T07:43:39;101828.78;;;21.74;100.00
3206;BME280;1615;53.602;11.418;2022-07-09T07:46:04;101841.19;;;21.44;100.00
3206;BME280;1615;53.602;11.418;2022-07-09T07:48:30;101827.75;;;21.58;100.00
3206;BME280;1615;53.602;11.418;2022-07-09T07:50:56;101821.84;;;21.59;100.00
3206;BME280;1615;53.602;11.418;2022-07-09T07:53:21;101823.28;;;21.45;100.00
3206;BME280;1615;53.602;11.418;2022-07-09T07:55:47;101726.28;;;20.80;100.00
3206;BME280;1615;53.602;11.418;2022-07-09T07:58:12;101811.97;;;21.21;100.00
3206;BME280;1615;53.602;11.418;2022-07-09T08:00:37;101823.00;;;21.38;100.00
3206;BME280;1615;53.602;11.418;2022-07-09T08:03:03;101818.78;;;21.52;100.00
3206;BME280;1615;53.602;11.418;2022-07-09T08:05:29;101788.56;;;21.54;100.00
3206;BME280;1615;53.602;11.418;2022-07-09T08:07:54;101820.00;;;21.84;100.00
3206;BME280;1615;53.602;11.418;2022-07-09T08:10:20;101813.75;;;21.46;100.00
3206;BME280;1615;53.602;11.418;2022-07-09T08:12:45;101833.69;;;21.36;100.00
3206;BME280;1615;53.602;11.418;2022-07-09T08:15:11;101772.16;;;20.83;100.00
3206;BME280;1615;53.602;11.418;2022-07-09T08:17:36;101851.47;;;21.02;100.00
3206;BME280;1615;53.602;11.418;2022-07-09T08:20:02;101843.97;;;20.94;100.00
3206;BME280;1615;53.602;11.418;2022-07-09T08:22:27;101840.56;;;20.80;100.00
3206;BME280;1615;53.602;11.418;2022-07-09T08:24:53;101818.63;;;20.70;100.00
3206;BME280;1615;53.602;11.418;2022-07-09T08:27:18;101845.28;;;20.97;100.00
3206;BME280;1615;53.602;11.418;2022-07-09T08:29:43;101857.53;;;21.04;100.00
3206;BME280;1615;53.602;11.418;2022-07-09T08:32:08;101861.38;;;20.83;100.00
3206;BME280;1615;53.602;11.418;2022-07-09T08:34:34;101856.50;;;20.80;100.00
3206;BME280;1615;53.602;11.418;2022-07-09T08:36:59;101861.31;;;21.00;100.00
3206;BME280;1615;53.602;11.418;2022-07-09T08:39:25;101853.16;;;21.24;100.00
3206;BME280;1615;53.602;11.418;2022-07-09T08:41:50;101778.34;;;20.97;100.00
3206;BME280;1615;53.602;11.418;2022-07-09T08:44:17;101843.34;;;21.59;100.00
3206;BME280;1615;53.602;11.418;2022-07-09T08:46:44;101839.09;;;21.82;100.00
3206;BME280;1615;53.602;11.418;2022-07-09T08:49:11;101834.53;;;22.10;100.00
3206;BME280;1615;53.602;11.418;2022-07-09T08:51:36;101840.53;;;22.00;100.00
3206;BME280;1615;53.602;11.418;2022-07-09T08:54:02;101783.91;;;21.79;100.00
3206;BME280;1615;53.602;11.418;2022-07-09T08:56:27;101824.75;;;22.16;100.00
3206;BME280;1615;53.602;11.418;2022-07-09T08:58:53;101808.84;;;22.28;100.00
3206;BME280;1615;53.602;11.418;2022-07-09T09:01:18;101730.88;;;21.91;100.00
3206;BME280;1615;53.602;11.418;2022-07-09T09:03:44;101830.34;;;22.72;100.00
3206;BME280;1615;53.602;11.418;2022-07-09T09:06:11;101817.88;;;23.06;100.00
3206;BME280;1615;53.602;11.418;2022-07-09T09:08:41;101822.16;;;23.15;100.00
3206;BME280;1615;53.602;11.418;2022-07-09T09:11:16;101758.44;;;22.97;100.00
3206;BME280;1615;53.602;11.418;2022-07-09T09:13:48;101814.13;;;23.14;100.00
3206;BME280;1615;53.602;11.418;2022-07-09T09:16:15;101825.19;;;23.10;100.00
3206;BME280;1615;53.602;11.418;2022-07-09T09:18:52;101741.69;;;22.73;100.00
3206;BME280;1615;53.602;11.418;2022-07-09T09:21:24;101821.22;;;23.35;100.00
3206;BME280;1615;53.602;11.418;2022-07-09T09:23:54;101826.72;;;23.32;100.00
3206;BME280;1615;53.602;11.418;2022-07-09T09:26:22;101829.75;;;23.27;100.00
3206;BME280;1615;53.602;11.418;2022-07-09T09:29:06;101828.94;;;23.26;100.00
3206;BME280;1615;53.602;11.418;2022-07-09T09:31:34;101810.88;;;23.12;100.00
3206;BME280;1615;53.602;11.418;2022-07-09T09:41:43;101804.13;;;22.89;100.00
3206;BME280;1615;53.602;11.418;2022-07-09T09:46:42;101755.25;;;22.26;100.00
3206;BME280;1615;53.602;11.418;2022-07-09T09:49:10;101807.84;;;22.45;100.00
3206;BME280;1615;53.602;11.418;2022-07-09T09:54:15;101812.28;;;22.70;100.00
3206;BME280;1615;53.602;11.418;2022-07-09T09:56:41;101800.88;;;22.75;100.00
3206;BME280;1615;53.602;11.418;2022-07-09T09:59:06;101785.72;;;22.76;100.00
3206;BME280;1615;53.602;11.418;2022-07-09T10:01:32;101803.91;;;22.94;100.00
3206;BME280;1615;53.602;11.418;2022-07-09T10:03:58;101788.16;;;23.01;100.00
3206;BME280;1615;53.602;11.418;2022-07-09T10:06:24;101780.72;;;23.45;100.00
3206;BME280;1615;53.602;11.418;2022-07-09T10:08:51;101618.00;;;22.52;100.00
3206;BME280;1615;53.602;11.418;2022-07-09T10:11:17;101776.84;;;23.77;100.00
3206;BME280;1615;53.602;11.418;2022-07-09T10:13:53;101766.31;;;23.86;100.00
3206;BME280;1615;53.602;11.418;2022-07-09T10:16:18;101751.81;;;23.68;100.00
3206;BME280;1615;53.602;11.418;2022-07-09T10:18:53;101782.91;;;23.91;100.00
3206;BME280;1615;53.602;11.418;2022-07-09T10:21:36;101768.91;;;24.06;100.00
3206;BME280;1615;53.602;11.418;2022-07-09T10:24:04;101774.59;;;24.10;100.00
3206;BME280;1615;53.602;11.418;2022-07-09T10:26:36;101786.63;;;24.10;100.00
3206;BME280;1615;53.602;11.418;2022-07-09T10:29:10;101779.56;;;24.01;100.00
3206;BME280;1615;53.602;11.418;2022-07-09T10:31:43;101773.75;;;23.94;100.00
3206;BME280;1615;53.602;11.418;2022-07-09T10:34:10;101752.63;;;23.69;100.00
3206;BME280;1615;53.602;11.418;2022-07-09T10:36:40;101711.41;;;23.54;100.00
3206;BME280;1615;53.602;11.418;2022-07-09T10:39:11;101763.31;;;23.79;100.00
3206;BME280;1615;53.602;11.418;2022-07-09T10:41:37;101764.84;;;23.76;100.00
3206;BME280;1615;53.602;11.418;2022-07-09T10:44:02;101772.50;;;23.64;100.00
3206;BME280;1615;53.602;11.418;2022-07-09T10:46:28;101764.44;;;23.62;100.00
3206;BME280;1615;53.602;11.418;2022-07-09T10:48:58;101761.47;;;23.43;100.00
3206;BME280;1615;53.602;11.418;2022-07-09T10:51:23;101748.25;;;23.28;100.00
3206;BME280;1615;53.602;11.418;2022-07-09T10:53:49;101733.34;;;23.12;100.00
3206;BME280;1615;53.602;11.418;2022-07-09T10:56:18;101734.81;;;23.34;100.00
3206;BME280;1615;53.602;11.418;2022-07-09T10:58:48;101744.06;;;23.50;100.00
3206;BME280;1615;53.602;11.418;2022-07-09T11:01:24;101736.53;;;23.66;100.00
3206;BME280;1615;53.602;11.418;2022-07-09T11:03:52;101723.28;;;23.78;100.00
3206;BME280;1615;53.602;11.418;2022-07-09T11:06:19;101709.72;;;23.80;100.00
3206;BME280;1615;53.602;11.418;2022-07-09T11:08:44;101708.59;;;23.97;100.00
3206;BME280;1615;53.602;11.418;2022-07-09T11:11:09;101709.88;;;24.15;100.00
3206;BME280;1615;53.602;11.418;2022-07-09T11:13:35;101711.03;;;24.14;100.00
3206;BME280;1615;53.602;11.418;2022-07-09T11:16:01;101706.53;;;24.25;100.00
3206;BME280;1615;53.602;11.418;2022-07-09T11:18:28;101698.31;;;24.32;100.00
3206;BME280;1615;53.602;11.418;2022-07-09T11:20:54;101709.75;;;24.58;100.00
3206;BME280;1615;53.602;11.418;2022-07-09T11:23:19;101663.81;;;24.47;100.00
3206;BME280;1615;53.602;11.418;2022-07-09T11:25:45;101708.72;;;24.81;100.00
3206;BME280;1615;53.602;11.418;2022-07-09T11:28:25;101708.34;;;24.83;100.00
3206;BME280;1615;53.602;11.418;2022-07-09T11:30:59;101699.50;;;24.81;100.00
3206;BME280;1615;53.602;11.418;2022-07-09T11:33:25;101699.50;;;24.81;100.00
3206;BME280;1615;53.602;11.418;2022-07-09T11:35:50;101661.84;;;23.85;100.00
3206;BME280;1615;53.602;11.418;2022-07-09T11:38:15;101706.78;;;23.89;100.00
3206;BME280;1615;53.602;11.418;2022-07-09T11:40:41;101720.34;;;23.59;100.00
3206;BME280;1615;53.602;11.418;2022-07-09T11:43:13;101674.94;;;23.11;100.00
3206;BME280;1615;53.602;11.418;2022-07-09T11:45:53;101719.69;;;23.23;100.00
3206;BME280;1615;53.602;11.418;2022-07-09T11:48:18;101665.06;;;22.50;100.00
3206;BME280;1615;53.602;11.418;2022-07-09T11:50:45;101716.22;;;23.02;100.00
3206;BME280;1615;53.602;11.418;2022-07-09T11:53:36;101705.88;;;23.30;100.00
3206;BME280;1615;53.602;11.418;2022-07-09T11:56:02;101705.78;;;23.54;100.00
3206;BME280;1615;53.602;11.418;2022-07-09T11:58:31;101705.06;;;23.57;100.00
3206;BME280;1615;53.602;11.418;2022-07-09T12:00:57;101701.41;;;23.41;100.00
3206;BME280;1615;53.602;11.418;2022-07-09T12:03:27;101696.63;;;23.69;100.00
3206;BME280;1615;53.602;11.418;2022-07-09T12:05:53;101690.53;;;23.94;100.00
3206;BME280;1615;53.602;11.418;2022-07-09T12:08:29;101691.97;;;24.19;100.00
3206;BME280;1615;53.602;11.418;2022-07-09T12:10:56;101689.91;;;24.32;100.00
3206;BME280;1615;53.602;11.418;2022-07-09T12:13:21;101701.38;;;24.27;100.00
3206;BME280;1615;53.602;11.418;2022-07-09T12:15:47;101711.47;;;23.85;100.00
3206;BME280;1615;53.602;11.418;2022-07-09T12:18:12;101710.22;;;23.27;100.00
3206;BME280;1615;53.602;11.418;2022-07-09T12:20:37;101650.13;;;22.34;100.00
3206;BME280;1615;53.602;11.418;2022-07-09T12:23:03;101642.47;;;22.07;100.00
3206;BME280;1615;53.602;11.418;2022-07-09T12:25:28;101689.38;;;22.25;100.00
3206;BME280;1615;53.602;11.418;2022-07-09T12:27:53;101705.78;;;22.27;100.00
3206;BME280;1615;53.602;11.418;2022-07-09T12:30:19;101700.56;;;22.37;100.00
3206;BME280;1615;53.602;11.418;2022-07-09T12:32:46;101624.53;;;21.84;100.00
3206;BME280;1615;53.602;11.418;2022-07-09T12:35:13;101698.25;;;22.51;100.00
3206;BME280;1615;53.602;11.418;2022-07-09T12:37:39;101686.22;;;22.75;100.00
3206;BME280;1615;53.602;11.418;2022-07-09T12:40:07;101679.16;;;22.93;100.00
3206;BME280;1615;53.602;11.418;2022-07-09T12:42:33;101696.09;;;22.84;100.00
3206;BME280;1615;53.602;11.418;2022-07-09T12:44:58;101675.38;;;22.85;100.00
3206;BME280;1615;53.602;11.418;2022-07-09T12:47:24;101679.78;;;22.86;100.00
3206;BME280;1615;53.602;11.418;2022-07-09T12:49:50;101677.25;;;23.09;100.00
3206;BME280;1615;53.602;11.418;2022-07-09T12:52:15;101652.84;;;23.33;100.00
3206;BME280;1615;53.602;11.418;2022-07-09T12:54:40;101656.50;;;23.65;100.00
3206;BME280;1615;53.602;11.418;2022-07-09T12:57:06;101658.34;;;24.04;100.00
3206;BME280;1615;53.602;11.418;2022-07-09T12:59:31;101611.88;;;24.03;100.00